Terminal Aerodrome Forecast
Issued by NWS

Home | Current Version | Previous Version | Text Only | Print | Product List | Glossary On
Versions: 1 2 3 4 5 6 7 8 9 10 11 12 13 14 15 16 17 18 19 20 21 22 23 24
000
FTUS43 KILX 251100
TAFCMI
TAF
KCMI 251126Z 2512/2612 23014KT P6SM OVC018
     FM251700 22015KT P6SM OVC011
     FM251900 21015G22KT P6SM SCT250
     FM260200 18015KT P6SM BKN250=

USA.gov is the U.S. government's official web portal to all federal, state and local government web resources and services.